Etusivu
METAR-TAF:

METAR-TAF

Lentoasemat :

Cortez, Colorado, Yhdysvallat

Leveyspiiri: 37-18-23N, Pituuspiiri: 108-37-32W, korkeus merenpinnasta: 1803 m

Tämänhetkinen sää

Tämä raportti tehtiin 23 minuuttia sitten, kello 00.53 UTC
Tuuli 8 kn lännestä/luoteesta
Lämpötila 32°C
Kosteus 18%
Ilmanpaine 1022 hPa
Näkyvyys: 16.1 km
Hajanaisia pilviä 11000 ft:n korkeudessa

METAR: KCEZ 200053Z AUTO 29008KT 10SM SCT110 32/05 A3018 RMK AO2 SLP128 T03220050

Aika: 19:16 (01:16 UTC)


TAF: puuttuu

Säähavainnot ja -ennusteet yli 4000 lentoasemalta (METAR- ja TAF-raportit).

Käytössä olevat sääasemat on merkitty karttaan keltaisilla ja punaisilla pisteillä.

Aseta hiiri pisteen päälle nähdäksesi sääaseman nimen.

Klikkaa sitten nähdäksesi säähavainnot ja -ennusteet.

Kartan vaihtaminen: klikkaa mustalla rastilla varustettuja vihreitä pisteitä, niin voit zoomata sisään; viivalla varustettua vihreää pistettä, niin voit zoomata ulos tai vihreitä nuolia, niin pääset viereisille kartoille.


METAR-TAF: